UUDD/DME METAR and TAF weather

Enter ICAO airport designator
Station Type Date Time Source
UUDD METAR 2021/07/26 16:00 UTC NOAA

UUDD 261600Z 28003MPS 230V320 CAVOK 25/08 Q1021 R88/CLRD60 NOSIG


Station Type Date Time Source
UUDD Decoded METAR 2021/07/26 16:00 UTC NOAA

Moscow / Domodedovo, Russia (UUDD) 55-24N 037-54E
Jul 26, 2021 - 12:00 PM EDT / 2021.07.26 1600 UTC
Wind: from the W (280 degrees) at 7 MPH (6 KT) (direction variable):0
Visibility: greater than 7 mile(s):0
Temperature: 77 F (25 C)
Dew Point: 46 F (8 C)
Relative Humidity: 33%
Pressure (altimeter): 30.15 in. Hg (1021 hPa)
ob: UUDD 261600Z 28003MPS 230V320 CAVOK 25/08 Q1021 R88/CLRD60 NOSIG
cycle: 16

Station Type Date Time Source
UUDD TAF 2021/07/26 15:22 UTC NOAA

TAF UUDD 261357Z 2615/2721 27003MPS 9999 SCT040 TX29/2712Z TN14/2701Z

Example: see airport list